createdAt,value
2022-08-01T00:01:58.147Z,4.60
2022-08-01T00:04:24.692Z,4.90
2022-08-01T00:06:51.300Z,5.27
2022-08-01T00:09:23.802Z,5.53
2022-08-01T00:12:08.128Z,4.67
2022-08-01T00:14:34.765Z,5.67
2022-08-01T00:17:06.885Z,5.80
2022-08-01T00:19:34.151Z,5.20
2022-08-01T00:22:00.696Z,5.40
2022-08-01T00:24:27.321Z,5.30
2022-08-01T00:26:53.831Z,4.90
2022-08-01T00:30:12.432Z,4.93
2022-08-01T00:32:07.392Z,5.70
2022-08-01T00:34:34.542Z,5.50
2022-08-01T00:37:01.044Z,4.93
2022-08-01T00:39:27.823Z,6.03
2022-08-01T00:41:59.488Z,5.50
2022-08-01T00:44:27.323Z,5.40
2022-08-01T00:46:54.028Z,5.13
2022-08-01T00:49:20.710Z,4.90
2022-08-01T00:51:47.437Z,5.10
2022-08-01T00:54:16.521Z,7.30
2022-08-01T00:56:44.077Z,6.47
2022-08-01T00:59:12.398Z,7.00
2022-08-01T01:01:41.027Z,6.20
2022-08-01T01:04:13.765Z,5.80
2022-08-01T01:07:04.655Z,6.30
2022-08-01T01:09:36.551Z,5.70
2022-08-01T01:12:06.210Z,5.50
2022-08-01T01:14:56.328Z,5.00
2022-08-01T01:17:31.219Z,6.40
2022-08-01T01:20:16.053Z,5.53
2022-08-01T01:23:13.577Z,5.43
2022-08-01T01:25:58.719Z,5.47
2022-08-01T01:28:35.862Z,5.20
2022-08-01T01:31:03.793Z,5.37
2022-08-01T01:33:32.889Z,5.10
2022-08-01T01:36:02.550Z,5.40
2022-08-01T01:38:32.986Z,5.13
2022-08-01T01:41:00.757Z,6.23
2022-08-01T01:43:28.999Z,5.77
2022-08-01T01:46:01.495Z,5.50
2022-08-01T01:48:28.800Z,5.37
2022-08-01T01:50:57.723Z,5.87
2022-08-01T01:53:24.971Z,6.13
2022-08-01T01:55:54.014Z,5.87
2022-08-01T01:58:21.541Z,5.73
2022-08-01T02:00:50.416Z,5.83
2022-08-01T02:03:17.965Z,5.73
2022-08-01T02:05:45.035Z,5.73
2022-08-01T02:08:13.883Z,5.47
2022-08-01T02:10:40.928Z,6.07
2022-08-01T02:13:07.740Z,5.50
2022-08-01T02:15:39.173Z,6.20
2022-08-01T02:18:25.972Z,5.97
2022-08-01T02:20:53.787Z,5.47
2022-08-01T02:23:20.913Z,5.40
2022-08-01T02:26:10.208Z,6.00
2022-08-01T02:28:57.981Z,5.60
2022-08-01T02:31:24.859Z,6.30
2022-08-01T02:34:00.881Z,5.93
2022-08-01T02:36:31.668Z,5.23
2022-08-01T02:39:02.065Z,5.40
2022-08-01T02:41:29.784Z,5.40
2022-08-01T02:44:00.613Z,6.33
2022-08-01T02:46:33.194Z,5.37
2022-08-01T02:49:01.824Z,6.30
2022-08-01T02:51:29.660Z,6.10
2022-08-01T02:53:56.614Z,6.10
2022-08-01T02:56:23.883Z,6.50
2022-08-01T02:58:50.729Z,6.00
2022-08-01T03:01:19.290Z,7.00
2022-08-01T03:03:46.829Z,6.40
2022-08-01T03:06:14.051Z,5.10
2022-08-01T03:08:40.771Z,5.47
2022-08-01T03:11:08.038Z,5.73
2022-08-01T03:13:34.920Z,5.90
2022-08-01T03:16:02.831Z,5.73
2022-08-01T03:18:30.087Z,6.40
2022-08-01T03:20:57.909Z,5.60
2022-08-01T03:23:37.787Z,6.70
2022-08-01T03:26:05.092Z,5.63
2022-08-01T03:28:31.847Z,5.70
2022-08-01T03:30:59.534Z,5.70
2022-08-01T03:33:26.137Z,5.90
2022-08-01T03:35:54.793Z,5.80
2022-08-01T03:38:25.146Z,5.80
2022-08-01T03:40:57.792Z,6.10
2022-08-01T03:43:47.875Z,6.17
2022-08-01T03:46:21.168Z,5.10
2022-08-01T03:48:49.914Z,4.97
2022-08-01T03:51:18.191Z,7.33
2022-08-01T03:53:45.644Z,5.80
2022-08-01T03:56:13.692Z,5.43
2022-08-01T03:58:40.780Z,5.77
2022-08-01T04:01:08.156Z,6.90
2022-08-01T04:03:43.320Z,5.20
2022-08-01T04:06:11.462Z,5.97
2022-08-01T04:08:39.392Z,6.37
2022-08-01T04:11:05.928Z,5.90
2022-08-01T04:13:37.162Z,5.30
2022-08-01T04:16:04.361Z,6.13
2022-08-01T04:18:30.896Z,6.20
2022-08-01T04:20:57.376Z,6.53
2022-08-01T04:23:26.864Z,5.80
2022-08-01T04:25:53.590Z,5.70
2022-08-01T04:28:21.295Z,6.10
2022-08-01T04:30:49.897Z,5.87
2022-08-01T04:33:17.266Z,6.03
2022-08-01T04:36:03.841Z,5.73
2022-08-01T04:38:33.912Z,6.47
2022-08-01T04:41:08.651Z,6.50
2022-08-01T04:43:36.610Z,6.33
2022-08-01T04:46:05.005Z,6.13
2022-08-01T04:48:32.907Z,5.63
2022-08-01T04:51:00.083Z,6.40
2022-08-01T04:53:27.704Z,6.70
2022-08-01T04:55:54.508Z,6.83
2022-08-01T04:58:21.109Z,7.77
2022-08-01T05:00:48.160Z,5.77
2022-08-01T05:03:14.776Z,5.67
2022-08-01T05:05:41.310Z,6.23
2022-08-01T05:08:07.831Z,5.87
2022-08-01T05:10:34.683Z,6.13
2022-08-01T05:13:01.407Z,6.67
2022-08-01T05:15:28.089Z,6.70
2022-08-01T05:17:55.320Z,5.30
2022-08-01T05:20:22.554Z,6.00
2022-08-01T05:22:49.479Z,5.87
2022-08-01T05:25:19.987Z,5.83
2022-08-01T05:27:47.950Z,5.67
2022-08-01T05:30:15.864Z,6.30
2022-08-01T05:32:42.956Z,5.93
2022-08-01T05:35:09.817Z,6.43
2022-08-01T05:37:36.379Z,6.03
2022-08-01T05:40:03.287Z,6.00
2022-08-01T05:42:29.782Z,5.90
2022-08-01T05:44:56.355Z,6.10
2022-08-01T05:47:23.121Z,6.90
2022-08-01T05:49:49.728Z,6.77
2022-08-01T05:52:16.386Z,6.20
2022-08-01T05:54:42.939Z,5.90
2022-08-01T05:57:09.550Z,5.87
2022-08-01T05:59:37.674Z,5.60
2022-08-01T06:02:04.525Z,5.97
2022-08-01T06:04:31.408Z,7.33
2022-08-01T06:06:58.023Z,6.27
2022-08-01T06:09:24.610Z,6.37
2022-08-01T06:11:51.133Z,5.70
2022-08-01T06:14:17.663Z,6.03
2022-08-01T06:16:44.184Z,6.60
2022-08-01T06:19:10.717Z,6.20
2022-08-01T06:21:37.334Z,6.10
2022-08-01T06:24:04.184Z,10.73
2022-08-01T06:26:30.750Z,12.20
2022-08-01T06:28:57.472Z,10.07
2022-08-01T06:31:23.915Z,7.50
2022-08-01T06:33:50.483Z,6.30
2022-08-01T06:36:17.049Z,5.63
2022-08-01T06:38:43.546Z,5.80
2022-08-01T06:41:10.073Z,6.10
2022-08-01T06:43:36.569Z,5.20
2022-08-01T06:46:03.312Z,6.90
2022-08-01T06:48:29.833Z,5.10
2022-08-01T06:51:09.103Z,6.13
2022-08-01T06:53:37.322Z,5.20
2022-08-01T06:56:04.948Z,5.67
2022-08-01T06:58:31.967Z,5.97
2022-08-01T07:00:58.624Z,6.77
2022-08-01T07:03:26.387Z,6.27
2022-08-01T07:06:12.891Z,5.77
2022-08-01T07:08:41.710Z,5.93
2022-08-01T07:11:08.895Z,6.27
2022-08-01T07:13:43.993Z,5.57
2022-08-01T07:16:15.784Z,5.17
2022-08-01T07:18:42.620Z,5.70
2022-08-01T07:21:16.790Z,5.80
2022-08-01T07:23:56.047Z,6.80
2022-08-01T07:26:23.123Z,5.30
2022-08-01T07:28:50.471Z,6.20
2022-08-01T07:31:17.032Z,6.23
2022-08-01T07:33:47.768Z,5.67
2022-08-01T07:36:16.841Z,5.67
2022-08-01T07:38:43.545Z,5.90
2022-08-01T07:41:10.040Z,6.03
2022-08-01T07:43:37.007Z,6.20
2022-08-01T07:46:04.637Z,6.47
2022-08-01T07:48:31.329Z,5.47
2022-08-01T07:50:58.349Z,5.70
2022-08-01T07:53:24.919Z,6.70
2022-08-01T07:55:51.609Z,6.30
2022-08-01T07:58:18.096Z,6.00
2022-08-01T08:00:44.942Z,5.90
2022-08-01T08:03:11.475Z,5.30
2022-08-01T08:05:58.926Z,5.80
2022-08-01T08:08:24.901Z,5.80
2022-08-01T08:10:51.522Z,5.50
2022-08-01T08:13:18.044Z,5.03
2022-08-01T08:15:45.207Z,5.83
2022-08-01T08:18:15.165Z,5.53
2022-08-01T08:20:41.697Z,5.60
2022-08-01T08:23:41.842Z,5.53
2022-08-01T08:26:09.875Z,5.70
2022-08-01T08:28:36.401Z,5.57
2022-08-01T08:31:03.134Z,5.60
2022-08-01T08:33:29.664Z,6.90
2022-08-01T08:35:56.382Z,4.73
2022-08-01T08:38:28.339Z,5.23
2022-08-01T08:40:56.983Z,5.13
2022-08-01T08:43:25.446Z,5.80
2022-08-01T08:45:58.691Z,6.20
2022-08-01T08:48:27.847Z,5.23
2022-08-01T08:50:55.178Z,6.37
2022-08-01T08:53:21.750Z,6.37
2022-08-01T08:55:56.349Z,5.50
2022-08-01T08:58:31.483Z,5.40
2022-08-01T09:00:58.465Z,6.20
2022-08-01T09:03:25.214Z,5.90
2022-08-01T09:05:51.746Z,5.97
2022-08-01T09:08:18.311Z,6.13
2022-08-01T09:10:44.845Z,5.17
2022-08-01T09:13:14.110Z,5.57
2022-08-01T09:15:45.652Z,6.13
2022-08-01T09:18:28.878Z,6.07
2022-08-01T09:21:07.651Z,6.33
2022-08-01T09:23:34.094Z,5.07
2022-08-01T09:26:00.729Z,5.97
2022-08-01T09:28:30.968Z,5.37
2022-08-01T09:30:58.467Z,5.23
2022-08-01T09:33:25.279Z,4.93
2022-08-01T09:35:57.154Z,6.17
2022-08-01T09:38:27.580Z,5.27
2022-08-01T09:41:00.224Z,5.50
2022-08-01T09:43:31.505Z,5.07
2022-08-01T09:45:59.268Z,5.20
2022-08-01T09:48:28.639Z,5.00
2022-08-01T09:51:03.980Z,5.33
2022-08-01T09:53:50.812Z,4.40
2022-08-01T09:56:18.160Z,5.50
2022-08-01T09:59:00.397Z,5.00
2022-08-01T10:01:36.586Z,5.90
2022-08-01T10:04:15.313Z,4.83
2022-08-01T10:06:44.985Z,5.70
2022-08-01T10:09:14.096Z,4.80
2022-08-01T10:11:43.236Z,5.10
2022-08-01T10:14:13.211Z,5.40
2022-08-01T10:16:44.624Z,4.77
2022-08-01T10:19:15.316Z,5.00
2022-08-01T10:21:56.922Z,4.60
2022-08-01T10:24:26.354Z,5.87
2022-08-01T10:26:56.986Z,4.23
2022-08-01T10:29:59.062Z,4.77
2022-08-01T10:32:12.393Z,4.43
2022-08-01T10:34:38.984Z,4.60
2022-08-01T10:37:11.704Z,4.73
2022-08-01T10:39:40.852Z,4.53
2022-08-01T10:42:10.973Z,5.07
2022-08-01T10:44:43.334Z,4.70
2022-08-01T10:47:18.177Z,4.80
2022-08-01T10:49:56.822Z,4.57
2022-08-01T10:52:23.468Z,4.87
2022-08-01T10:55:03.988Z,4.30
2022-08-01T10:57:52.612Z,5.93
2022-08-01T11:00:21.088Z,4.30
2022-08-01T11:03:01.972Z,4.77
2022-08-01T11:05:35.976Z,4.47
2022-08-01T11:08:04.926Z,4.53
2022-08-01T11:10:34.981Z,4.70
2022-08-01T11:13:04.442Z,4.83
2022-08-01T11:15:31.810Z,4.03
2022-08-01T11:18:00.636Z,4.47
2022-08-01T11:20:34.156Z,4.17
2022-08-01T11:23:07.338Z,3.80
2022-08-01T11:26:06.247Z,6.00
2022-08-01T11:28:32.610Z,4.23
2022-08-01T11:31:13.926Z,4.00
2022-08-01T11:33:49.437Z,3.93
2022-08-01T11:36:18.630Z,4.23
2022-08-01T11:38:49.103Z,3.70
2022-08-01T11:41:18.724Z,4.20
2022-08-01T11:44:30.196Z,4.03
2022-08-01T11:46:59.979Z,3.57
2022-08-01T11:49:36.169Z,3.43
2022-08-01T11:52:09.757Z,4.50
2022-08-01T11:54:39.375Z,3.83
2022-08-01T11:57:11.638Z,4.40
2022-08-01T11:59:59.880Z,3.80
2022-08-01T12:02:31.499Z,4.23
2022-08-01T12:05:04.949Z,4.17
2022-08-01T12:07:34.163Z,4.33
2022-08-01T12:10:06.695Z,4.90
2022-08-01T12:12:34.440Z,3.50
2022-08-01T12:15:05.139Z,4.00
2022-08-01T12:17:46.975Z,3.10
2022-08-01T12:20:25.352Z,4.20
2022-08-01T12:22:56.924Z,3.90
2022-08-01T12:25:23.598Z,3.80
2022-08-01T12:27:55.757Z,3.13
2022-08-01T12:30:23.952Z,3.70
2022-08-01T12:32:51.023Z,3.40
2022-08-01T12:35:20.619Z,3.10
2022-08-01T12:37:49.157Z,4.00
2022-08-01T12:40:22.402Z,3.30
2022-08-01T12:42:52.265Z,3.73
2022-08-01T12:45:20.764Z,3.30
2022-08-01T12:47:48.104Z,3.27
2022-08-01T12:50:17.702Z,3.93
2022-08-01T12:52:44.330Z,3.50
2022-08-01T12:55:10.942Z,3.20
2022-08-01T12:57:39.871Z,3.10
2022-08-01T13:00:08.042Z,3.30
2022-08-01T13:02:36.117Z,3.13
2022-08-01T13:05:04.026Z,4.73
2022-08-01T13:07:47.068Z,3.20
2022-08-01T13:10:16.602Z,3.30
2022-08-01T13:12:54.071Z,2.90
2022-08-01T13:15:22.219Z,2.63
2022-08-01T13:17:49.104Z,2.83
2022-08-01T13:20:27.222Z,3.40
2022-08-01T13:22:54.075Z,3.40
2022-08-01T13:25:23.044Z,2.80
2022-08-01T13:27:54.081Z,3.10
2022-08-01T13:30:22.952Z,3.10
2022-08-01T13:33:02.623Z,2.70
2022-08-01T13:35:29.210Z,3.03
2022-08-01T13:37:57.289Z,3.37
2022-08-01T13:40:27.014Z,4.10
2022-08-01T13:42:55.855Z,2.80
2022-08-01T13:45:22.663Z,2.63
2022-08-01T13:48:04.067Z,3.20
2022-08-01T13:50:35.752Z,2.90
2022-08-01T13:53:02.507Z,3.03
2022-08-01T13:55:34.633Z,2.93
2022-08-01T13:58:02.430Z,4.23
2022-08-01T14:00:28.978Z,3.43
2022-08-01T14:02:55.568Z,2.30
2022-08-01T14:05:22.075Z,3.40
2022-08-01T14:07:48.930Z,2.70
2022-08-01T14:10:19.593Z,3.40
2022-08-01T14:12:48.534Z,2.73
2022-08-01T14:15:36.833Z,2.93
2022-08-01T14:18:01.985Z,3.03
2022-08-01T14:20:29.306Z,2.47
2022-08-01T14:22:55.932Z,2.57
2022-08-01T14:25:57.841Z,3.67
2022-08-01T14:28:09.166Z,2.73
2022-08-01T14:30:35.828Z,4.20
2022-08-01T14:33:02.339Z,3.10
2022-08-01T14:35:28.838Z,3.00
2022-08-01T14:38:21.910Z,3.10
2022-08-01T14:40:58.600Z,2.53
2022-08-01T14:43:30.712Z,2.60
2022-08-01T14:45:59.756Z,3.23
2022-08-01T14:48:26.622Z,2.70
2022-08-01T14:50:53.443Z,3.03
2022-08-01T14:53:19.936Z,2.30
2022-08-01T14:55:46.475Z,3.13
2022-08-01T14:58:13.135Z,3.33
2022-08-01T15:00:39.699Z,3.50
2022-08-01T15:03:06.308Z,3.97
2022-08-01T15:05:33.879Z,2.17
2022-08-01T15:08:00.396Z,2.37
2022-08-01T15:10:27.065Z,4.17
2022-08-01T15:12:53.844Z,4.00
2022-08-01T15:15:20.431Z,4.43
2022-08-01T15:17:46.950Z,3.77
2022-08-01T15:20:13.655Z,3.60
2022-08-01T15:22:40.174Z,3.83
2022-08-01T15:25:07.005Z,3.67
2022-08-01T15:27:33.496Z,3.57
2022-08-01T15:30:00.194Z,3.53
2022-08-01T15:32:26.835Z,3.60
2022-08-01T15:34:53.501Z,2.53
2022-08-01T15:37:21.663Z,3.70
2022-08-01T15:39:48.507Z,3.67
2022-08-01T15:42:20.061Z,3.33
2022-08-01T15:44:52.044Z,3.03
2022-08-01T15:47:18.564Z,3.57
2022-08-01T15:49:45.185Z,3.40
2022-08-01T15:52:21.303Z,3.40
2022-08-01T15:54:49.034Z,3.30
2022-08-01T15:57:15.618Z,3.47
2022-08-01T15:59:42.431Z,3.43
2022-08-01T16:02:11.134Z,2.80
2022-08-01T16:04:38.760Z,4.40
2022-08-01T16:07:06.338Z,4.10
2022-08-01T16:09:32.875Z,3.13
2022-08-01T16:11:59.472Z,3.20
2022-08-01T16:14:26.066Z,2.97
2022-08-01T16:16:54.771Z,3.10
2022-08-01T16:19:21.805Z,3.40
2022-08-01T16:21:48.359Z,3.30
2022-08-01T16:24:14.937Z,3.57
2022-08-01T16:26:41.456Z,3.00
2022-08-01T16:29:08.004Z,4.80
2022-08-01T16:31:50.047Z,3.93
2022-08-01T16:34:21.713Z,5.13
2022-08-01T16:36:50.301Z,3.37
2022-08-01T16:39:22.463Z,3.40
2022-08-01T16:41:50.055Z,5.50
2022-08-01T16:44:33.360Z,3.63
2022-08-01T16:47:05.370Z,3.40
2022-08-01T16:49:32.388Z,2.50
2022-08-01T16:51:59.085Z,3.60
2022-08-01T16:54:26.403Z,3.53
2022-08-01T16:56:58.040Z,3.57
2022-08-01T16:59:35.427Z,3.57
2022-08-01T17:02:08.520Z,4.23
2022-08-01T17:04:35.051Z,3.23
2022-08-01T17:07:01.569Z,3.33
2022-08-01T17:09:28.201Z,3.50
2022-08-01T17:11:54.683Z,3.30
2022-08-01T17:14:21.216Z,3.33
2022-08-01T17:16:48.471Z,2.80
2022-08-01T17:19:15.095Z,3.67
2022-08-01T17:21:42.341Z,3.03
2022-08-01T17:24:09.209Z,3.30
2022-08-01T17:26:35.844Z,4.50
2022-08-01T17:29:02.402Z,3.77
2022-08-01T17:31:29.008Z,4.23
2022-08-01T17:33:55.579Z,3.70
2022-08-01T17:36:22.368Z,3.70
2022-08-01T17:38:49.075Z,4.00
2022-08-01T17:41:15.599Z,3.73
2022-08-01T17:43:42.152Z,4.23
2022-08-01T17:46:09.123Z,3.57
2022-08-01T17:48:35.671Z,3.60
2022-08-01T17:51:02.270Z,3.70
2022-08-01T17:53:29.507Z,4.10
2022-08-01T17:55:58.581Z,4.40
2022-08-01T17:58:46.012Z,3.77
2022-08-01T18:01:14.246Z,3.90
2022-08-01T18:03:41.809Z,3.60
2022-08-01T18:06:17.541Z,4.17
2022-08-01T18:08:46.903Z,4.00
2022-08-01T18:11:15.761Z,3.33
2022-08-01T18:13:42.299Z,3.77
2022-08-01T18:16:11.291Z,3.37
2022-08-01T18:18:38.744Z,3.37
2022-08-01T18:21:06.374Z,4.10
2022-08-01T18:23:33.802Z,3.77
2022-08-01T18:26:02.290Z,4.07
2022-08-01T18:28:34.109Z,3.37
2022-08-01T18:31:06.072Z,3.90
2022-08-01T18:33:33.558Z,3.90
2022-08-01T18:36:03.744Z,3.37
2022-08-01T18:38:32.269Z,3.20
2022-08-01T18:41:00.223Z,3.60
2022-08-01T18:43:26.862Z,3.93
2022-08-01T18:45:53.598Z,3.93
2022-08-01T18:48:20.307Z,3.20
2022-08-01T18:50:46.829Z,3.40
2022-08-01T18:53:13.345Z,3.90
2022-08-01T18:55:39.997Z,3.10
2022-08-01T18:58:06.542Z,3.47
2022-08-01T19:00:33.138Z,3.43
2022-08-01T19:02:59.822Z,3.23
2022-08-01T19:05:26.329Z,3.33
2022-08-01T19:08:05.224Z,3.40
2022-08-01T19:10:36.083Z,3.87
2022-08-01T19:13:03.064Z,3.80
2022-08-01T19:15:29.810Z,3.40
2022-08-01T19:17:56.471Z,3.77
2022-08-01T19:20:23.172Z,3.50
2022-08-01T19:22:49.727Z,3.40
2022-08-01T19:25:16.537Z,3.60
2022-08-01T19:27:46.336Z,4.20
2022-08-01T19:30:13.185Z,4.37
2022-08-01T19:32:42.469Z,3.20
2022-08-01T19:35:11.520Z,3.10
2022-08-01T19:37:44.041Z,3.67
2022-08-01T19:40:12.383Z,3.30
2022-08-01T19:42:54.872Z,3.67
2022-08-01T19:45:21.728Z,3.80
2022-08-01T19:47:56.006Z,5.47
2022-08-01T19:50:23.847Z,4.93
2022-08-01T19:52:52.050Z,4.37
2022-08-01T19:55:19.024Z,4.13
2022-08-01T19:57:59.291Z,3.30
2022-08-01T20:00:37.140Z,3.80
2022-08-01T20:03:04.313Z,4.30
2022-08-01T20:05:31.032Z,3.33
2022-08-01T20:07:57.784Z,4.90
2022-08-01T20:10:24.432Z,10.93
2022-08-01T20:12:51.127Z,4.50
2022-08-01T20:15:17.636Z,8.33
2022-08-01T20:17:45.519Z,3.90
2022-08-01T20:20:12.196Z,6.40
2022-08-01T20:22:39.930Z,4.17
2022-08-01T20:25:07.957Z,4.40
2022-08-01T20:27:35.189Z,3.80
2022-08-01T20:30:01.894Z,4.67
2022-08-01T20:32:31.849Z,3.40
2022-08-01T20:34:58.375Z,3.57
2022-08-01T20:38:04.113Z,4.60
2022-08-01T20:40:13.043Z,4.27
2022-08-01T20:42:40.177Z,4.00
2022-08-01T20:45:07.426Z,3.80
2022-08-01T20:47:33.914Z,3.60
2022-08-01T20:50:26.990Z,4.57
2022-08-01T20:53:06.738Z,4.30
2022-08-01T20:55:46.296Z,4.23
2022-08-01T20:58:16.421Z,4.10
2022-08-01T21:00:45.398Z,5.03
2022-08-01T21:03:19.673Z,3.90
2022-08-01T21:05:55.925Z,4.80
2022-08-01T21:08:37.059Z,4.10
2022-08-01T21:11:03.825Z,3.40
2022-08-01T21:13:38.812Z,4.27
2022-08-01T21:16:23.687Z,4.70
2022-08-01T21:19:18.671Z,4.63
2022-08-01T21:21:51.998Z,4.07
2022-08-01T21:24:19.517Z,4.77
2022-08-01T21:26:46.620Z,5.13
2022-08-01T21:29:13.609Z,5.27
2022-08-01T21:31:41.519Z,4.90
2022-08-01T21:34:08.838Z,4.60
2022-08-01T21:36:36.514Z,3.53
2022-08-01T21:39:05.631Z,3.97
2022-08-01T21:41:56.031Z,3.97
2022-08-01T21:44:19.007Z,3.87
2022-08-01T21:46:47.125Z,3.77
2022-08-01T21:49:13.813Z,4.10
2022-08-01T21:51:51.984Z,8.90
2022-08-01T21:54:27.999Z,9.20
2022-08-01T21:57:01.095Z,8.33
2022-08-01T21:59:44.373Z,8.00
2022-08-01T22:02:43.326Z,7.53
2022-08-01T22:05:11.615Z,6.23
2022-08-01T22:07:52.290Z,5.10
2022-08-01T22:10:20.482Z,5.40
2022-08-01T22:12:47.472Z,4.37
2022-08-01T22:15:14.570Z,5.33
2022-08-01T22:17:41.567Z,4.57
2022-08-01T22:20:08.858Z,4.90
2022-08-01T22:22:51.755Z,4.40
2022-08-01T22:25:20.532Z,4.07
2022-08-01T22:28:05.619Z,4.20
2022-08-01T22:30:34.675Z,4.10
2022-08-01T22:33:15.262Z,5.13
2022-08-01T22:35:49.338Z,5.63
2022-08-01T22:38:21.077Z,4.00
2022-08-01T22:40:53.046Z,4.10
2022-08-01T22:43:30.820Z,4.30
2022-08-01T22:46:04.663Z,4.80
2022-08-01T22:48:38.621Z,4.00
2022-08-01T22:51:38.625Z,4.70
2022-08-01T22:54:07.400Z,3.70
2022-08-01T22:56:39.145Z,4.73
2022-08-01T22:59:15.512Z,4.10
2022-08-01T23:01:48.047Z,4.07
2022-08-01T23:04:33.116Z,3.53
2022-08-01T23:07:04.339Z,3.67
2022-08-01T23:09:53.279Z,3.80
2022-08-01T23:12:21.727Z,3.47
2022-08-01T23:14:48.203Z,3.40
2022-08-01T23:17:26.879Z,3.70
2022-08-01T23:19:57.317Z,3.30
2022-08-01T23:22:26.111Z,3.67
2022-08-01T23:24:54.032Z,3.60
2022-08-01T23:27:51.402Z,2.97
2022-08-01T23:30:18.865Z,3.10
2022-08-01T23:32:45.629Z,3.00
2022-08-01T23:35:12.108Z,3.20
2022-08-01T23:37:38.780Z,2.90
2022-08-01T23:40:05.783Z,3.67
2022-08-01T23:42:32.345Z,2.73
2022-08-01T23:44:58.862Z,3.47
2022-08-01T23:47:25.394Z,3.20
2022-08-01T23:49:53.452Z,3.50
2022-08-01T23:52:20.744Z,2.70
2022-08-01T23:54:48.439Z,2.67
2022-08-01T23:57:16.405Z,2.73
2022-08-01T23:59:53.048Z,2.87
